Página principal
METAR-TAF:

METAR-TAF

Aeroportos :

Jendouba, Tunísia

latitude: 36-29N, longitude: 008-48E, altura: 143 m

Observação actual do tempo

O boletim foi feito há 22 minutos, às 17:00 UTC
Vento 8 kt de oes-noroeste, variando entre su-sudoeste e nor-nordeste
Temperatura 29°C
Humidade 40%
Pressão 1014 hPa
Visibilidade 10 km ou mais
Nuvens dispersasa uma altura de 2000 ft

METAR: DTTN 231700Z 30008KT 210V020 9999 SCT020 29/14 Q1014

Hora: 18:22 (17:22 UTC)


TAF: em falta

Observações e previsões do tempo de mais de 4000 aeroportos (mensagens METAR e TAF).

As estações disponíveis são os pontos amarelos e vermelhos sobre o mapa.

Mova o rato sobre o mapa para ver o nome da estação.

Depois clique no ponto para visualizar as observações e previsões meteorológicas.

Para alterar o mapa : clique nos botões verdes com uma cruz preta para aumentar o zoom; no botão verde com uma pitada de zoom; ou nas setas verdes para mapas adjacentes.


METAR-TAF: